Terminal Aerodrome Forecast
Issued by NWS

Home | Current Version | Previous Version | Graphics & Text | Print | Product List | Glossary On
Versions: 1 2 3 4 5 6 7 8 9 10 11 12 13 14 15 16 17 18 19 20 21 22 23 24 25 26 27 28 29 30 31 32 33 34
000
FTUS43 KLOT 181600 AAB
TAFMDW
TAF AMD
KMDW 181601Z 1816/1912 05003KT P6SM SCT012 SCT030
      TEMPO 1816/1817 BKN012
     FM181800 16004KT P6SM SCT035 SCT100
     FM182100 09009KT P6SM SCT040 SCT200
     FM190100 19006KT P6SM BKN050 BKN100
     FM190400 20007KT P6SM SHRA VCTS SCT035CB BKN050
     FM190700 20010KT P6SM -TSRA SCT035CB BKN040
     FM191100 22009KT 4SM SHRA BR BKN025 PROB30 1911/1912 TSRA
      BKN035CB=

USA.gov is the U.S. government's official web portal to all federal, state and local government web resources and services.